createdAt,value
2022-11-28T00:03:10.118Z,4.76
2022-11-28T00:08:12.636Z,4.76
2022-11-28T00:13:14.361Z,4.73
2022-11-28T00:18:16.034Z,4.76
2022-11-28T00:23:17.796Z,4.75
2022-11-28T00:28:19.558Z,4.76
2022-11-28T00:33:21.626Z,4.74
2022-11-28T00:38:23.377Z,4.73
2022-11-28T00:43:25.134Z,4.76
2022-11-28T00:48:27.545Z,4.74
2022-11-28T00:53:29.206Z,4.68
2022-11-28T00:58:31.960Z,4.70
2022-11-28T01:03:33.597Z,4.78
2022-11-28T01:08:36.614Z,4.76
2022-11-28T01:13:39.455Z,4.61
2022-11-28T01:18:41.124Z,4.54
2022-11-28T01:23:42.910Z,4.47
2022-11-28T01:28:45.495Z,4.48
2022-11-28T01:33:47.790Z,4.40
2022-11-28T01:38:49.924Z,4.37
2022-11-28T01:43:58.794Z,4.34
2022-11-28T01:49:22.772Z,4.33
2022-11-28T01:54:26.208Z,4.36
2022-11-28T01:59:33.927Z,4.41
2022-11-28T02:04:35.761Z,4.47
2022-11-28T02:09:37.447Z,4.47
2022-11-28T02:15:16.981Z,4.50
2022-11-28T02:20:40.285Z,4.46
2022-11-28T02:26:03.758Z,4.45
2022-11-28T02:31:08.497Z,4.41
2022-11-28T02:36:24.244Z,4.36
2022-11-28T02:41:35.194Z,4.27
2022-11-28T02:47:02.067Z,4.23
2022-11-28T02:52:09.961Z,4.32
2022-11-28T02:57:11.940Z,4.25
2022-11-28T03:02:19.723Z,4.23
2022-11-28T03:07:42.834Z,4.18
2022-11-28T03:12:47.540Z,4.15
2022-11-28T03:18:15.150Z,4.12
2022-11-28T03:23:26.583Z,4.13
2022-11-28T03:28:40.685Z,4.09
2022-11-28T03:33:53.442Z,4.07
2022-11-28T03:39:02.453Z,4.10
2022-11-28T03:44:14.843Z,4.10
2022-11-28T03:49:24.444Z,4.07
2022-11-28T03:54:35.521Z,4.15
2022-11-28T03:59:48.015Z,4.14
2022-11-28T04:05:02.017Z,4.15
2022-11-28T04:10:21.629Z,4.06
2022-11-28T04:15:43.418Z,4.02
2022-11-28T04:20:58.353Z,4.08
2022-11-28T04:26:27.333Z,4.14
2022-11-28T04:31:30.981Z,4.17
2022-11-28T04:36:37.422Z,4.18
2022-11-28T04:41:45.589Z,4.14
2022-11-28T04:46:52.382Z,4.21
2022-11-28T04:52:12.749Z,4.25
2022-11-28T04:57:24.355Z,4.21
2022-11-28T05:02:28.581Z,4.22
2022-11-28T05:07:30.357Z,4.20
2022-11-28T05:12:32.311Z,4.27
2022-11-28T05:17:37.679Z,4.33
2022-11-28T05:22:42.228Z,4.40
2022-11-28T05:27:44.078Z,4.32
2022-11-28T05:32:45.796Z,4.32
2022-11-28T05:37:47.555Z,4.24
2022-11-28T05:42:49.252Z,4.24
2022-11-28T05:47:50.930Z,4.23
2022-11-28T05:52:52.658Z,4.31
2022-11-28T05:57:54.872Z,4.41
2022-11-28T06:03:01.179Z,4.45
2022-11-28T06:08:03.327Z,4.50
2022-11-28T06:13:05.299Z,5.00
2022-11-28T06:18:07.220Z,5.35
2022-11-28T06:23:08.888Z,5.43
2022-11-28T06:28:10.550Z,5.39
2022-11-28T06:33:12.510Z,5.44
2022-11-28T06:38:14.643Z,5.28
2022-11-28T06:43:16.258Z,5.23
2022-11-28T06:48:18.949Z,4.89
2022-11-28T06:53:20.723Z,4.80
2022-11-28T06:58:22.409Z,4.85
2022-11-28T07:03:24.093Z,4.83
2022-11-28T07:08:25.784Z,4.82
2022-11-28T07:13:27.551Z,4.71
2022-11-28T07:18:29.264Z,4.70
2022-11-28T07:23:30.975Z,4.79
2022-11-28T07:28:34.616Z,4.77
2022-11-28T07:33:36.988Z,4.64
2022-11-28T07:38:38.654Z,4.58
2022-11-28T07:43:42.802Z,4.44
2022-11-28T07:48:45.401Z,4.53
2022-11-28T07:53:47.355Z,4.32
2022-11-28T07:58:49.734Z,4.39
2022-11-28T08:03:52.824Z,4.80
2022-11-28T08:08:55.547Z,5.04
2022-11-28T08:13:58.126Z,5.36
2022-11-28T08:19:02.093Z,5.45
2022-11-28T08:24:04.797Z,5.29
2022-11-28T08:29:06.504Z,5.18
2022-11-28T08:34:09.916Z,5.19
2022-11-28T08:39:27.534Z,5.14
2022-11-28T08:44:30.753Z,5.07
2022-11-28T08:49:32.735Z,5.02
2022-11-28T08:54:34.443Z,5.01
2022-11-28T08:59:36.207Z,5.08
2022-11-28T09:04:38.242Z,5.12
2022-11-28T09:09:39.992Z,5.10
2022-11-28T09:14:42.094Z,5.19
2022-11-28T09:19:44.721Z,5.28
2022-11-28T09:24:46.736Z,5.34
2022-11-28T09:29:49.784Z,5.38
2022-11-28T09:34:51.637Z,5.41
2022-11-28T09:40:11.949Z,5.47
2022-11-28T09:45:23.528Z,5.50
2022-11-28T09:50:31.046Z,5.60
2022-11-28T09:55:44.308Z,5.65
2022-11-28T10:00:50.303Z,5.71
2022-11-28T10:06:24.163Z,5.74
2022-11-28T10:11:32.058Z,5.72
2022-11-28T10:16:58.999Z,5.76
2022-11-28T10:22:05.392Z,5.77
2022-11-28T10:27:07.228Z,5.83
2022-11-28T10:32:18.282Z,5.89
2022-11-28T10:37:31.659Z,5.87
2022-11-28T10:42:50.269Z,5.85
2022-11-28T10:48:37.098Z,5.89
2022-11-28T10:53:31.624Z,6.08
2022-11-28T10:58:47.128Z,6.21
2022-11-28T11:03:49.606Z,6.29
2022-11-28T11:08:51.289Z,6.39
2022-11-28T11:14:03.972Z,6.45
2022-11-28T11:19:05.649Z,6.49
2022-11-28T11:24:25.622Z,6.59
2022-11-28T11:29:37.171Z,6.65
2022-11-28T11:34:44.938Z,6.62
2022-11-28T11:39:51.639Z,6.70
2022-11-28T11:44:53.546Z,6.78
2022-11-28T11:50:05.465Z,6.70
2022-11-28T11:55:16.378Z,6.76
2022-11-28T12:00:21.065Z,6.74
2022-11-28T12:05:41.782Z,6.76
2022-11-28T12:11:08.069Z,6.69
2022-11-28T12:16:42.543Z,6.73
2022-11-28T12:21:53.482Z,6.81
2022-11-28T12:27:03.509Z,6.88
2022-11-28T12:32:34.423Z,6.92
2022-11-28T12:38:09.903Z,6.94
2022-11-28T12:43:48.525Z,6.92
2022-11-28T12:49:38.237Z,6.88
2022-11-28T12:54:52.934Z,6.90
2022-11-28T13:00:08.365Z,6.96
2022-11-28T13:05:27.716Z,7.04
2022-11-28T13:10:42.101Z,7.07
2022-11-28T13:16:03.316Z,7.08
2022-11-28T13:21:17.358Z,7.08
2022-11-28T13:26:19.253Z,7.19
2022-11-28T13:31:30.869Z,7.51
2022-11-28T13:42:58.787Z,7.69
2022-11-28T13:47:41.895Z,7.76
2022-11-28T13:52:43.967Z,7.83
2022-11-28T13:57:46.900Z,7.82
2022-11-28T14:02:53.121Z,7.64
2022-11-28T14:07:56.693Z,7.42
2022-11-28T14:13:13.421Z,7.33
2022-11-28T14:18:56.391Z,7.28
2022-11-28T14:24:11.209Z,7.25
2022-11-28T14:29:25.956Z,7.26
2022-11-28T14:34:44.286Z,7.20
2022-11-28T14:39:50.606Z,7.18
2022-11-28T14:45:00.775Z,7.14
2022-11-28T14:50:05.599Z,7.10
2022-11-28T14:55:11.626Z,7.04
2022-11-28T15:00:15.926Z,6.99
2022-11-28T15:05:36.971Z,6.93
2022-11-28T15:11:04.694Z,6.88
2022-11-28T15:16:12.312Z,6.91
2022-11-28T15:21:15.717Z,6.83
2022-11-28T15:26:30.839Z,6.81
2022-11-28T15:31:33.407Z,6.79
2022-11-28T15:36:39.171Z,6.74
2022-11-28T15:41:45.671Z,6.80
2022-11-28T15:46:47.446Z,6.86
2022-11-28T15:51:56.514Z,6.78
2022-11-28T15:56:59.248Z,6.80
2022-11-28T16:02:11.860Z,6.73
2022-11-28T16:07:16.004Z,6.65
2022-11-28T16:12:18.912Z,6.63
2022-11-28T16:17:26.241Z,6.59
2022-11-28T16:22:36.888Z,6.63
2022-11-28T16:27:42.101Z,6.58
2022-11-28T16:32:43.842Z,6.54
2022-11-28T16:37:45.591Z,6.45
2022-11-28T16:42:55.041Z,6.39
2022-11-28T16:48:08.745Z,6.34
2022-11-28T16:53:47.760Z,6.36
2022-11-28T16:58:52.457Z,6.37
2022-11-28T17:03:56.608Z,6.36
2022-11-28T17:08:58.412Z,6.34
2022-11-28T17:14:02.708Z,6.31
2022-11-28T17:19:04.935Z,6.28
2022-11-28T17:24:16.262Z,6.18
2022-11-28T17:29:18.487Z,6.19
2022-11-28T17:34:23.130Z,6.16
2022-11-28T17:39:25.059Z,6.13
2022-11-28T17:44:32.092Z,6.11
2022-11-28T17:49:34.871Z,6.03
2022-11-28T17:54:36.673Z,5.94
2022-11-28T17:59:38.528Z,5.90
2022-11-28T18:04:40.918Z,5.90
2022-11-28T18:09:43.250Z,5.92
2022-11-28T18:14:45.583Z,5.89
2022-11-28T18:19:47.744Z,5.82
2022-11-28T18:24:49.396Z,5.83
2022-11-28T18:29:51.262Z,5.81
2022-11-28T18:34:53.087Z,5.86
2022-11-28T18:39:54.844Z,5.89
2022-11-28T18:44:57.737Z,5.93
2022-11-28T18:49:59.717Z,5.92
2022-11-28T18:55:02.891Z,5.95
2022-11-28T19:00:06.325Z,5.95
2022-11-28T19:05:08.685Z,5.86
2022-11-28T19:10:12.612Z,5.87
2022-11-28T19:15:14.383Z,5.92
2022-11-28T19:20:16.150Z,5.97
2022-11-28T19:25:17.779Z,6.00
2022-11-28T19:30:19.497Z,6.06
2022-11-28T19:35:21.595Z,6.07
2022-11-28T19:40:23.370Z,6.06
2022-11-28T19:45:25.727Z,6.05
2022-11-28T19:50:27.599Z,6.07
2022-11-28T19:55:29.508Z,6.06
2022-11-28T20:00:31.258Z,6.10
2022-11-28T20:05:38.738Z,6.09
2022-11-28T20:10:40.600Z,6.09
2022-11-28T20:15:42.432Z,6.08
2022-11-28T20:20:44.178Z,6.11
2022-11-28T20:25:45.893Z,6.11
2022-11-28T20:30:47.802Z,6.12
2022-11-28T20:35:49.848Z,6.12
2022-11-28T20:40:51.774Z,6.14
2022-11-28T20:45:53.498Z,6.14
2022-11-28T20:50:55.493Z,6.12
2022-11-28T20:56:02.847Z,6.13
2022-11-28T21:01:05.456Z,6.12
2022-11-28T21:06:07.421Z,6.17
2022-11-28T21:11:43.537Z,6.18
2022-11-28T21:16:39.938Z,6.16
2022-11-28T21:21:43.148Z,6.19
2022-11-28T21:26:49.718Z,6.23
2022-11-28T21:31:54.765Z,6.23
2022-11-28T21:36:56.578Z,6.25
2022-11-28T21:41:58.242Z,6.30
2022-11-28T21:47:00.016Z,6.32
2022-11-28T21:52:03.437Z,6.38
2022-11-28T21:57:05.211Z,6.42
2022-11-28T22:02:11.512Z,6.42
2022-11-28T22:07:13.842Z,6.37
2022-11-28T22:12:15.576Z,6.33
2022-11-28T22:17:17.246Z,6.38
2022-11-28T22:22:19.352Z,6.42
2022-11-28T22:27:21.691Z,6.42
2022-11-28T22:32:23.436Z,6.39
2022-11-28T22:37:25.143Z,6.36
2022-11-28T22:42:27.358Z,6.26
2022-11-28T22:47:29.259Z,6.30
2022-11-28T22:52:31.191Z,6.31
2022-11-28T22:57:32.917Z,6.31
2022-11-28T23:02:35.960Z,6.33
2022-11-28T23:07:37.817Z,6.31
2022-11-28T23:12:40.673Z,6.29
2022-11-28T23:17:43.179Z,6.25
2022-11-28T23:22:45.025Z,6.19
2022-11-28T23:27:47.397Z,6.19
2022-11-28T23:32:49.240Z,6.17
2022-11-28T23:37:51.001Z,6.16
2022-11-28T23:42:52.714Z,6.14
2022-11-28T23:47:54.372Z,6.11
2022-11-28T23:52:56.035Z,6.10
2022-11-28T23:57:57.798Z,6.13
